createdAt,value
2023-01-26T01:26:10.853Z,75.88
2023-01-26T01:28:39.021Z,51.20
2023-01-26T01:31:07.648Z,58.92
2023-01-26T01:33:36.607Z,92.90
2023-01-26T01:36:06.194Z,90.32
2023-01-26T01:38:34.040Z,95.50
2023-01-26T01:41:01.624Z,94.82
2023-01-26T01:43:29.364Z,70.43
2023-01-26T01:45:57.415Z,67.05
2023-01-26T01:48:26.853Z,79.22
2023-01-26T01:50:56.781Z,98.47
2023-01-26T01:53:28.213Z,53.80
2023-01-26T01:56:01.315Z,52.40
2023-01-26T01:58:29.729Z,51.05
2023-01-26T02:00:59.253Z,54.60
2023-01-26T02:03:27.131Z,53.80
2023-01-26T02:05:56.191Z,51.85
2023-01-26T02:08:27.607Z,52.92
2023-01-26T02:10:57.163Z,58.20
2023-01-26T02:13:25.296Z,63.65
2023-01-26T02:15:53.045Z,142.63
2023-01-26T02:18:21.665Z,81.82
2023-01-26T02:20:54.694Z,76.70
2023-01-26T02:23:44.094Z,63.83
2023-01-26T02:26:16.616Z,58.90
2023-01-26T02:28:46.462Z,59.20
2023-01-26T02:31:14.686Z,63.65
2023-01-26T02:33:43.136Z,93.45
2023-01-26T02:36:18.506Z,98.32
2023-01-26T02:39:09.333Z,83.65
2023-01-26T02:41:55.131Z,65.85
2023-01-26T02:44:24.919Z,64.18
2023-01-26T02:46:53.278Z,64.20
2023-01-26T02:49:40.003Z,63.70
2023-01-26T02:52:08.198Z,64.97
2023-01-26T02:54:54.900Z,63.15
2023-01-26T02:57:23.366Z,65.05
2023-01-26T02:59:52.161Z,84.75
2023-01-26T03:02:19.864Z,56.72
2023-01-26T03:04:47.741Z,63.13
2023-01-26T03:07:15.620Z,64.90
2023-01-26T03:09:43.226Z,60.53
2023-01-26T03:12:10.827Z,70.20
2023-01-26T03:14:38.415Z,60.70
2023-01-26T03:17:06.222Z,74.07
2023-01-26T03:19:52.308Z,69.53
2023-01-26T03:22:38.348Z,62.72
2023-01-26T03:25:24.920Z,61.00
2023-01-26T03:27:54.524Z,56.38
2023-01-26T03:30:22.207Z,61.58
2023-01-26T03:32:50.807Z,68.47
2023-01-26T03:35:22.863Z,64.88
2023-01-26T03:37:55.193Z,63.42
2023-01-26T03:41:04.608Z,61.72
2023-01-26T03:43:51.581Z,57.10
2023-01-26T03:46:37.648Z,54.80
2023-01-26T03:49:24.842Z,54.90
2023-01-26T03:52:13.628Z,53.55
2023-01-26T03:55:00.816Z,60.88
2023-01-26T03:57:29.640Z,52.90
2023-01-26T03:59:57.282Z,64.20
2023-01-26T04:02:46.123Z,61.58
2023-01-26T04:05:32.322Z,53.15
2023-01-26T04:08:22.263Z,54.55
2023-01-26T04:10:51.847Z,56.72
2023-01-26T04:13:38.706Z,50.42
2023-01-26T04:16:28.501Z,48.60
2023-01-26T04:19:14.609Z,50.88
2023-01-26T04:21:42.197Z,47.67
2023-01-26T04:24:22.598Z,50.38
2023-01-26T04:26:56.618Z,52.45
2023-01-26T04:29:28.389Z,48.50
2023-01-26T04:31:58.377Z,52.88
2023-01-26T04:34:26.754Z,70.93
2023-01-26T04:36:54.724Z,66.13
2023-01-26T04:41:56.835Z,61.40
2023-01-26T04:44:24.545Z,59.97
2023-01-26T04:46:52.798Z,71.72
2023-01-26T04:49:21.017Z,64.75
2023-01-26T04:51:48.976Z,66.45
2023-01-26T04:54:17.329Z,66.90
2023-01-26T04:56:46.081Z,56.45
2023-01-26T04:59:14.664Z,43.03
2023-01-26T05:01:43.726Z,40.70
2023-01-26T05:04:12.830Z,37.85
2023-01-26T05:06:43.360Z,40.53
2023-01-26T05:09:11.651Z,46.33
2023-01-26T05:11:41.007Z,44.72
2023-01-26T05:14:16.134Z,42.72
2023-01-26T05:17:04.860Z,39.03
2023-01-26T05:19:51.120Z,40.13
2023-01-26T05:22:36.547Z,40.95
2023-01-26T05:25:27.370Z,47.22
2023-01-26T05:28:08.210Z,45.08
2023-01-26T05:30:35.956Z,28.83
2023-01-26T05:33:05.246Z,35.90
2023-01-26T05:35:33.587Z,40.45
2023-01-26T05:38:01.389Z,35.05
2023-01-26T05:40:31.822Z,43.55
2023-01-26T05:43:04.077Z,43.65
2023-01-26T05:46:09.989Z,39.17
2023-01-26T05:48:40.573Z,55.58
2023-01-26T05:51:08.178Z,49.58
2023-01-26T05:53:37.317Z,54.05
2023-01-26T05:56:05.322Z,48.03
2023-01-26T05:58:35.462Z,43.88
2023-01-26T06:01:04.940Z,41.95
2023-01-26T06:03:40.324Z,38.60
2023-01-26T06:06:08.009Z,52.35
2023-01-26T06:08:58.425Z,51.75
2023-01-26T06:11:32.394Z,48.13
2023-01-26T06:14:22.809Z,56.38
2023-01-26T06:16:50.700Z,41.25
2023-01-26T06:19:19.344Z,42.17
2023-01-26T06:21:53.710Z,39.47
2023-01-26T06:24:21.619Z,39.67
2023-01-26T06:26:50.292Z,38.17
2023-01-26T06:29:19.118Z,31.35
2023-01-26T06:31:47.289Z,33.47
2023-01-26T06:34:14.978Z,34.45
2023-01-26T06:36:43.674Z,36.53
2023-01-26T06:39:17.844Z,37.17
2023-01-26T06:41:57.209Z,36.42
2023-01-26T06:44:24.926Z,29.63
2023-01-26T06:46:52.730Z,33.03
2023-01-26T06:49:20.404Z,34.45
2023-01-26T06:52:05.323Z,31.38
2023-01-26T06:54:50.102Z,35.60
2023-01-26T06:57:17.725Z,32.40
2023-01-26T07:00:06.212Z,38.78
2023-01-26T07:02:36.635Z,38.55
2023-01-26T07:05:06.710Z,39.78
2023-01-26T11:58:24.737Z,16.15
2023-01-26T12:00:59.616Z,17.27
2023-01-26T12:03:48.437Z,14.02
2023-01-26T12:06:20.394Z,15.63
2023-01-26T12:09:19.171Z,17.23
2023-01-26T12:12:18.248Z,17.15
2023-01-26T12:14:47.677Z,15.63
2023-01-26T12:17:19.009Z,15.13
2023-01-26T12:20:06.342Z,15.93
2023-01-26T12:22:39.051Z,16.48
2023-01-26T12:25:35.598Z,15.63
2023-01-26T12:28:30.321Z,14.68
2023-01-26T12:43:15.180Z,15.45
2023-01-26T12:45:44.444Z,14.80
2023-01-26T12:48:20.655Z,15.85
2023-01-26T12:50:51.363Z,14.38
2023-01-26T12:53:44.120Z,15.75
2023-01-26T12:56:20.409Z,14.95
2023-01-26T12:58:48.903Z,14.95
2023-01-26T13:01:21.431Z,15.57
2023-01-26T13:04:13.787Z,15.70
2023-01-26T13:06:42.799Z,16.42
2023-01-26T13:09:37.676Z,15.40
2023-01-26T13:12:05.505Z,15.43
2023-01-26T13:14:38.132Z,16.42
2023-01-26T13:17:15.144Z,32.83
2023-01-26T17:00:26.857Z,67.38
2023-01-26T17:02:54.488Z,61.15
2023-01-26T17:05:23.139Z,59.38
2023-01-26T17:07:53.732Z,57.88
2023-01-26T17:10:22.683Z,55.83
2023-01-26T17:12:50.534Z,54.83
2023-01-26T17:15:18.205Z,53.20
2023-01-26T17:17:45.864Z,53.50
2023-01-26T17:20:19.387Z,55.97
2023-01-26T17:22:48.585Z,58.42
2023-01-26T17:25:17.480Z,83.15
2023-01-26T17:27:46.554Z,78.55
2023-01-26T17:30:14.193Z,78.47
2023-01-26T17:32:42.464Z,78.47
2023-01-26T17:35:10.380Z,102.03
2023-01-26T17:37:39.569Z,85.95
2023-01-26T17:40:08.592Z,83.97
2023-01-26T17:42:36.516Z,76.35
2023-01-26T17:45:04.366Z,68.55
2023-01-26T17:47:35.305Z,60.78
2023-01-26T17:50:02.890Z,57.70
2023-01-26T17:52:31.543Z,92.25
2023-01-26T17:55:05.378Z,101.93
2023-01-26T17:57:33.962Z,67.13
2023-01-26T18:00:01.530Z,62.50
2023-01-26T18:02:39.550Z,65.43
2023-01-26T18:05:09.034Z,59.55
2023-01-26T18:07:36.657Z,57.20
2023-01-26T18:10:04.778Z,56.35
2023-01-26T18:12:33.333Z,53.30
2023-01-26T18:15:01.285Z,52.80
2023-01-26T18:17:28.805Z,51.38
2023-01-26T18:19:56.354Z,51.85
2023-01-26T18:22:24.075Z,50.45
2023-01-26T18:24:52.895Z,48.17
2023-01-26T18:27:20.392Z,47.03
2023-01-26T18:29:48.414Z,44.47
2023-01-26T18:32:16.029Z,45.42
2023-01-26T18:34:44.264Z,49.58
2023-01-26T18:37:12.780Z,49.22
2023-01-26T18:39:40.352Z,49.55
2023-01-26T18:42:08.174Z,47.70
2023-01-26T18:44:36.462Z,47.13
2023-01-26T18:47:04.961Z,51.50
2023-01-26T18:49:34.957Z,47.33
2023-01-26T18:52:02.572Z,51.30
2023-01-26T18:54:31.004Z,47.45
2023-01-26T18:56:58.628Z,47.75
2023-01-26T18:59:26.255Z,59.53
2023-01-26T19:01:55.513Z,73.40
2023-01-26T19:04:23.077Z,62.17
2023-01-26T19:06:51.073Z,83.80
2023-01-26T19:09:18.665Z,89.50
2023-01-26T19:11:46.300Z,50.35
2023-01-26T19:14:14.748Z,47.78
2023-01-26T19:16:47.772Z,48.60
2023-01-26T19:19:15.482Z,45.35
2023-01-26T19:21:43.149Z,49.28
2023-01-26T19:24:11.001Z,64.18
2023-01-26T19:26:38.831Z,57.85
2023-01-26T19:29:06.360Z,51.75
2023-01-26T19:31:35.250Z,63.42
2023-01-26T19:34:04.986Z,55.33
2023-01-26T19:36:34.358Z,49.38
2023-01-26T19:39:04.826Z,47.60
2023-01-26T19:41:34.674Z,49.03
2023-01-26T19:44:02.548Z,50.55
2023-01-26T19:46:30.179Z,50.75
2023-01-26T19:48:57.857Z,52.53
2023-01-26T19:51:26.427Z,48.53
2023-01-26T19:53:58.168Z,46.95
2023-01-26T19:56:33.487Z,48.15
2023-01-26T19:59:02.717Z,49.50
2023-01-26T20:01:33.379Z,50.55
2023-01-26T20:04:09.305Z,54.88
2023-01-26T20:06:37.145Z,53.75
2023-01-26T20:09:06.007Z,51.03
2023-01-26T20:11:34.272Z,52.47
2023-01-26T20:14:08.698Z,60.20
2023-01-26T20:16:37.245Z,61.40
2023-01-26T20:19:05.160Z,60.15
2023-01-26T20:21:33.324Z,58.58
2023-01-26T20:24:05.568Z,58.55
2023-01-26T20:26:33.882Z,59.60
2023-01-26T20:29:01.485Z,55.95
2023-01-26T20:31:29.291Z,54.78
2023-01-26T20:33:58.592Z,54.30
2023-01-26T20:36:27.958Z,54.45
2023-01-26T20:38:56.156Z,60.30
2023-01-26T20:41:29.947Z,61.00
2023-01-26T20:44:01.976Z,57.72
2023-01-26T20:46:42.161Z,66.25
2023-01-26T20:49:16.154Z,68.10
2023-01-26T20:51:45.707Z,61.90
2023-01-26T20:54:16.093Z,63.67
2023-01-26T20:56:46.013Z,56.75
2023-01-26T20:59:14.255Z,52.83
2023-01-26T21:01:42.640Z,51.90
2023-01-26T21:04:11.083Z,52.08
2023-01-26T21:06:41.945Z,48.97
2023-01-26T21:09:12.519Z,38.65
2023-01-26T21:11:41.986Z,50.05
2023-01-26T21:14:11.747Z,50.95
2023-01-26T21:16:40.861Z,37.85
2023-01-26T21:19:09.069Z,51.13
2023-01-26T21:21:37.707Z,46.83
2023-01-26T21:24:07.535Z,49.63
2023-01-26T21:26:35.892Z,47.40
2023-01-26T21:29:08.012Z,45.35
2023-01-26T21:31:36.366Z,45.92
2023-01-26T21:34:04.967Z,44.20
2023-01-26T21:36:34.428Z,42.75
2023-01-26T21:41:52.146Z,41.95
2023-01-26T21:44:31.785Z,45.47
2023-01-26T21:47:01.419Z,41.65
2023-01-26T21:49:32.057Z,41.25
2023-01-26T21:52:18.949Z,45.30
2023-01-26T21:54:48.314Z,41.60
2023-01-26T21:57:35.231Z,37.00
2023-01-26T22:00:04.908Z,37.83
2023-01-26T22:02:36.263Z,37.55
2023-01-26T22:05:04.254Z,34.80
2023-01-26T22:07:33.296Z,36.83
2023-01-26T22:10:02.178Z,35.05
2023-01-26T22:12:30.778Z,39.83
2023-01-26T22:14:59.193Z,39.80
2023-01-26T22:17:27.703Z,39.88
2023-01-26T22:19:57.191Z,36.17
2023-01-26T22:22:25.206Z,31.65
2023-01-26T22:24:53.771Z,34.53
2023-01-26T22:27:23.665Z,30.98
2023-01-26T22:29:51.517Z,31.73
2023-01-26T22:32:19.667Z,33.03
2023-01-26T22:34:47.812Z,37.08
2023-01-26T22:37:15.926Z,30.13
2023-01-26T22:39:44.306Z,32.17
2023-01-26T22:42:12.977Z,32.78
2023-01-26T22:44:42.803Z,32.13
2023-01-26T22:47:10.664Z,29.65
2023-01-26T22:49:39.872Z,25.92
2023-01-26T22:52:07.884Z,28.27
2023-01-26T22:54:42.392Z,27.77
2023-01-26T22:57:11.765Z,24.95
2023-01-26T22:59:40.107Z,31.33
2023-01-26T23:02:08.017Z,27.15
2023-01-26T23:04:36.699Z,29.15
2023-01-26T23:07:04.555Z,23.88
2023-01-26T23:09:32.952Z,30.17
2023-01-26T23:12:01.998Z,27.63
2023-01-26T23:14:30.960Z,26.15
2023-01-26T23:16:59.847Z,28.25
2023-01-26T23:19:27.814Z,33.80
2023-01-26T23:21:55.952Z,35.20
2023-01-26T23:24:24.741Z,39.53
2023-01-26T23:26:53.046Z,26.90
2023-01-26T23:29:20.878Z,23.73
2023-01-26T23:31:48.888Z,30.90
2023-01-26T23:34:17.348Z,42.08
2023-01-26T23:36:46.660Z,30.60
2023-01-26T23:39:14.440Z,21.48
2023-01-26T23:41:42.670Z,23.20
2023-01-26T23:44:13.483Z,23.05
2023-01-26T23:46:42.113Z,23.30
2023-01-26T23:49:11.264Z,22.90
2023-01-26T23:51:39.645Z,21.92
2023-01-26T23:54:09.127Z,21.60
2023-01-26T23:56:37.027Z,24.02
2023-01-26T23:59:05.534Z,23.40
